sensor_id;sensor_type;location;lat;lon;timestamp;P1;durP1;ratioP1;P2;durP2;ratioP2
3815;SDS011;1923;48.154;11.536;2022-09-06T00:02:17;6.10;;;3.67;;
3815;SDS011;1923;48.154;11.536;2022-09-06T00:04:46;6.57;;;3.90;;
3815;SDS011;1923;48.154;11.536;2022-09-06T00:07:14;5.72;;;3.70;;
3815;SDS011;1923;48.154;11.536;2022-09-06T00:09:42;4.70;;;3.53;;
3815;SDS011;1923;48.154;11.536;2022-09-06T00:12:12;6.13;;;3.70;;
3815;SDS011;1923;48.154;11.536;2022-09-06T00:14:40;7.37;;;3.73;;
3815;SDS011;1923;48.154;11.536;2022-09-06T00:17:08;5.50;;;4.20;;
3815;SDS011;1923;48.154;11.536;2022-09-06T00:19:36;5.87;;;3.70;;
3815;SDS011;1923;48.154;11.536;2022-09-06T00:22:04;6.30;;;4.43;;
3815;SDS011;1923;48.154;11.536;2022-09-06T00:24:32;5.33;;;3.30;;
3815;SDS011;1923;48.154;11.536;2022-09-06T00:27:02;4.80;;;4.00;;
3815;SDS011;1923;48.154;11.536;2022-09-06T00:29:32;4.70;;;3.50;;
3815;SDS011;1923;48.154;11.536;2022-09-06T00:32:01;7.23;;;3.73;;
3815;SDS011;1923;48.154;11.536;2022-09-06T00:34:29;5.35;;;3.60;;
3815;SDS011;1923;48.154;11.536;2022-09-06T00:36:57;5.23;;;3.60;;
3815;SDS011;1923;48.154;11.536;2022-09-06T00:39:26;7.50;;;4.50;;
3815;SDS011;1923;48.154;11.536;2022-09-06T00:41:54;6.23;;;4.10;;
3815;SDS011;1923;48.154;11.536;2022-09-06T00:44:22;4.27;;;3.20;;
3815;SDS011;1923;48.154;11.536;2022-09-06T00:46:52;4.63;;;3.53;;
3815;SDS011;1923;48.154;11.536;2022-09-06T00:49:22;8.50;;;4.87;;
3815;SDS011;1923;48.154;11.536;2022-09-06T00:52:08;4.83;;;3.80;;
3815;SDS011;1923;48.154;11.536;2022-09-06T00:54:39;5.93;;;4.10;;
3815;SDS011;1923;48.154;11.536;2022-09-06T00:57:08;5.10;;;3.80;;
3815;SDS011;1923;48.154;11.536;2022-09-06T00:59:37;6.27;;;3.90;;
3815;SDS011;1923;48.154;11.536;2022-09-06T01:02:08;5.43;;;3.70;;
3815;SDS011;1923;48.154;11.536;2022-09-06T01:04:37;5.30;;;3.50;;
3815;SDS011;1923;48.154;11.536;2022-09-06T01:07:09;5.13;;;3.73;;
3815;SDS011;1923;48.154;11.536;2022-09-06T01:09:48;4.87;;;4.07;;
3815;SDS011;1923;48.154;11.536;2022-09-06T01:12:26;6.30;;;3.50;;
3815;SDS011;1923;48.154;11.536;2022-09-06T01:15:04;5.47;;;4.00;;
3815;SDS011;1923;48.154;11.536;2022-09-06T01:17:43;5.37;;;3.77;;
3815;SDS011;1923;48.154;11.536;2022-09-06T01:26:35;4.40;;;3.67;;
3815;SDS011;1923;48.154;11.536;2022-09-06T01:29:26;5.67;;;4.30;;
3815;SDS011;1923;48.154;11.536;2022-09-06T01:32:01;4.00;;;3.17;;
3815;SDS011;1923;48.154;11.536;2022-09-06T01:34:36;5.80;;;4.17;;
3815;SDS011;1923;48.154;11.536;2022-09-06T01:37:09;4.67;;;3.53;;
3815;SDS011;1923;48.154;11.536;2022-09-06T01:39:39;5.90;;;4.23;;
3815;SDS011;1923;48.154;11.536;2022-09-06T01:42:09;5.63;;;3.77;;
3815;SDS011;1923;48.154;11.536;2022-09-06T01:44:41;5.10;;;3.63;;
3815;SDS011;1923;48.154;11.536;2022-09-06T01:47:15;4.90;;;3.23;;
3815;SDS011;1923;48.154;11.536;2022-09-06T01:49:54;6.57;;;4.07;;
3815;SDS011;1923;48.154;11.536;2022-09-06T01:52:33;5.37;;;3.90;;
3815;SDS011;1923;48.154;11.536;2022-09-06T01:55:12;5.30;;;3.97;;
3815;SDS011;1923;48.154;11.536;2022-09-06T01:57:51;7.53;;;4.40;;
3815;SDS011;1923;48.154;11.536;2022-09-06T02:00:37;5.60;;;4.23;;
3815;SDS011;1923;48.154;11.536;2022-09-06T02:03:11;5.97;;;3.90;;
3815;SDS011;1923;48.154;11.536;2022-09-06T02:05:46;4.33;;;3.50;;
3815;SDS011;1923;48.154;11.536;2022-09-06T02:08:18;5.10;;;3.30;;
3815;SDS011;1923;48.154;11.536;2022-09-06T02:10:53;4.30;;;3.53;;
3815;SDS011;1923;48.154;11.536;2022-09-06T02:13:24;5.60;;;3.80;;
3815;SDS011;1923;48.154;11.536;2022-09-06T02:15:58;6.50;;;3.97;;
3815;SDS011;1923;48.154;11.536;2022-09-06T02:18:30;5.57;;;3.57;;
3815;SDS011;1923;48.154;11.536;2022-09-06T02:21:01;6.13;;;4.10;;
3815;SDS011;1923;48.154;11.536;2022-09-06T02:23:33;4.97;;;3.60;;
3815;SDS011;1923;48.154;11.536;2022-09-06T02:26:06;4.60;;;3.30;;
3815;SDS011;1923;48.154;11.536;2022-09-06T02:28:37;4.53;;;3.57;;
3815;SDS011;1923;48.154;11.536;2022-09-06T02:31:08;3.97;;;3.53;;
3815;SDS011;1923;48.154;11.536;2022-09-06T02:33:42;4.93;;;3.43;;
3815;SDS011;1923;48.154;11.536;2022-09-06T02:36:12;5.30;;;3.50;;
3815;SDS011;1923;48.154;11.536;2022-09-06T02:38:42;8.30;;;4.60;;
3815;SDS011;1923;48.154;11.536;2022-09-06T02:41:12;5.80;;;3.67;;
3815;SDS011;1923;48.154;11.536;2022-09-06T02:43:44;6.23;;;3.60;;
3815;SDS011;1923;48.154;11.536;2022-09-06T02:46:14;6.20;;;4.23;;
3815;SDS011;1923;48.154;11.536;2022-09-06T02:48:42;6.37;;;4.23;;
3815;SDS011;1923;48.154;11.536;2022-09-06T02:51:11;6.13;;;3.83;;
3815;SDS011;1923;48.154;11.536;2022-09-06T02:53:40;6.30;;;3.93;;
3815;SDS011;1923;48.154;11.536;2022-09-06T02:56:08;6.20;;;3.87;;
3815;SDS011;1923;48.154;11.536;2022-09-06T02:58:37;6.10;;;3.80;;
3815;SDS011;1923;48.154;11.536;2022-09-06T03:01:05;6.30;;;3.60;;
3815;SDS011;1923;48.154;11.536;2022-09-06T03:03:35;4.83;;;3.37;;
3815;SDS011;1923;48.154;11.536;2022-09-06T03:06:04;5.10;;;3.30;;
3815;SDS011;1923;48.154;11.536;2022-09-06T03:08:32;5.13;;;3.70;;
3815;SDS011;1923;48.154;11.536;2022-09-06T03:11:01;5.07;;;3.83;;
3815;SDS011;1923;48.154;11.536;2022-09-06T03:13:30;4.50;;;3.40;;
3815;SDS011;1923;48.154;11.536;2022-09-06T03:15:58;4.57;;;3.80;;
3815;SDS011;1923;48.154;11.536;2022-09-06T03:18:27;5.87;;;4.00;;
3815;SDS011;1923;48.154;11.536;2022-09-06T03:20:58;5.07;;;3.20;;
3815;SDS011;1923;48.154;11.536;2022-09-06T03:23:27;4.23;;;3.00;;
3815;SDS011;1923;48.154;11.536;2022-09-06T03:25:55;4.80;;;3.53;;
3815;SDS011;1923;48.154;11.536;2022-09-06T03:28:24;3.97;;;3.10;;
3815;SDS011;1923;48.154;11.536;2022-09-06T03:30:53;7.17;;;4.23;;
3815;SDS011;1923;48.154;11.536;2022-09-06T03:33:21;4.77;;;3.53;;
3815;SDS011;1923;48.154;11.536;2022-09-06T03:35:51;6.53;;;3.77;;
3815;SDS011;1923;48.154;11.536;2022-09-06T03:38:21;4.50;;;3.63;;
3815;SDS011;1923;48.154;11.536;2022-09-06T03:40:50;4.90;;;3.97;;
3815;SDS011;1923;48.154;11.536;2022-09-06T03:43:19;4.70;;;3.50;;
3815;SDS011;1923;48.154;11.536;2022-09-06T03:45:50;6.10;;;3.80;;
3815;SDS011;1923;48.154;11.536;2022-09-06T03:48:19;4.50;;;3.33;;
3815;SDS011;1923;48.154;11.536;2022-09-06T03:50:50;5.67;;;4.00;;
3815;SDS011;1923;48.154;11.536;2022-09-06T03:53:22;6.57;;;3.90;;
3815;SDS011;1923;48.154;11.536;2022-09-06T03:55:52;5.60;;;3.30;;
3815;SDS011;1923;48.154;11.536;2022-09-06T03:58:23;7.80;;;4.40;;
3815;SDS011;1923;48.154;11.536;2022-09-06T04:01:02;5.53;;;3.93;;
3815;SDS011;1923;48.154;11.536;2022-09-06T04:03:33;5.17;;;3.50;;
3815;SDS011;1923;48.154;11.536;2022-09-06T04:06:02;6.17;;;4.17;;
3815;SDS011;1923;48.154;11.536;2022-09-06T04:08:33;6.50;;;4.00;;
3815;SDS011;1923;48.154;11.536;2022-09-06T04:11:01;4.47;;;3.67;;
3815;SDS011;1923;48.154;11.536;2022-09-06T04:13:30;4.77;;;3.80;;
3815;SDS011;1923;48.154;11.536;2022-09-06T04:15:59;7.57;;;4.80;;
3815;SDS011;1923;48.154;11.536;2022-09-06T04:18:28;5.27;;;3.40;;
3815;SDS011;1923;48.154;11.536;2022-09-06T04:20:56;6.63;;;4.47;;
3815;SDS011;1923;48.154;11.536;2022-09-06T04:23:25;7.17;;;4.30;;
3815;SDS011;1923;48.154;11.536;2022-09-06T04:25:56;10.33;;;4.80;;
3815;SDS011;1923;48.154;11.536;2022-09-06T04:28:25;4.87;;;3.70;;
3815;SDS011;1923;48.154;11.536;2022-09-06T04:30:54;4.57;;;3.83;;
3815;SDS011;1923;48.154;11.536;2022-09-06T04:33:29;4.53;;;3.77;;
3815;SDS011;1923;48.154;11.536;2022-09-06T04:35:59;5.77;;;4.23;;
3815;SDS011;1923;48.154;11.536;2022-09-06T04:38:30;9.03;;;5.00;;
3815;SDS011;1923;48.154;11.536;2022-09-06T04:41:04;8.90;;;5.77;;
3815;SDS011;1923;48.154;11.536;2022-09-06T04:43:32;16.80;;;8.60;;
3815;SDS011;1923;48.154;11.536;2022-09-06T04:46:01;19.23;;;8.73;;
3815;SDS011;1923;48.154;11.536;2022-09-06T04:48:30;23.57;;;9.53;;
3815;SDS011;1923;48.154;11.536;2022-09-06T04:50:59;23.90;;;11.33;;
3815;SDS011;1923;48.154;11.536;2022-09-06T04:53:27;17.57;;;10.43;;
3815;SDS011;1923;48.154;11.536;2022-09-06T04:55:55;37.93;;;16.13;;
3815;SDS011;1923;48.154;11.536;2022-09-06T04:58:25;23.90;;;10.00;;
3815;SDS011;1923;48.154;11.536;2022-09-06T05:00:54;27.00;;;12.80;;
3815;SDS011;1923;48.154;11.536;2022-09-06T05:03:22;10.70;;;6.43;;
3815;SDS011;1923;48.154;11.536;2022-09-06T05:05:50;11.07;;;7.67;;
3815;SDS011;1923;48.154;11.536;2022-09-06T05:08:18;14.90;;;6.10;;
3815;SDS011;1923;48.154;11.536;2022-09-06T05:10:49;7.13;;;3.73;;
3815;SDS011;1923;48.154;11.536;2022-09-06T05:13:37;8.90;;;6.00;;
3815;SDS011;1923;48.154;11.536;2022-09-06T05:16:06;12.80;;;5.30;;
3815;SDS011;1923;48.154;11.536;2022-09-06T05:18:34;8.97;;;4.60;;
3815;SDS011;1923;48.154;11.536;2022-09-06T05:21:03;6.13;;;3.77;;
3815;SDS011;1923;48.154;11.536;2022-09-06T05:23:33;6.17;;;3.87;;
3815;SDS011;1923;48.154;11.536;2022-09-06T05:26:01;10.57;;;3.43;;
3815;SDS011;1923;48.154;11.536;2022-09-06T05:28:30;6.27;;;3.80;;
3815;SDS011;1923;48.154;11.536;2022-09-06T05:31:06;6.43;;;3.93;;
3815;SDS011;1923;48.154;11.536;2022-09-06T05:33:35;7.70;;;3.80;;
3815;SDS011;1923;48.154;11.536;2022-09-06T05:36:04;10.80;;;4.13;;
3815;SDS011;1923;48.154;11.536;2022-09-06T05:38:33;4.60;;;3.37;;
3815;SDS011;1923;48.154;11.536;2022-09-06T05:41:02;3.93;;;3.13;;
3815;SDS011;1923;48.154;11.536;2022-09-06T05:43:30;7.30;;;3.60;;
3815;SDS011;1923;48.154;11.536;2022-09-06T05:45:58;5.97;;;3.43;;
3815;SDS011;1923;48.154;11.536;2022-09-06T05:48:28;5.93;;;3.77;;
3815;SDS011;1923;48.154;11.536;2022-09-06T05:51:02;4.20;;;3.30;;
3815;SDS011;1923;48.154;11.536;2022-09-06T05:53:32;6.43;;;3.53;;
3815;SDS011;1923;48.154;11.536;2022-09-06T05:56:02;3.90;;;2.97;;
3815;SDS011;1923;48.154;11.536;2022-09-06T05:58:31;5.17;;;3.53;;
3815;SDS011;1923;48.154;11.536;2022-09-06T06:01:03;4.80;;;3.40;;
3815;SDS011;1923;48.154;11.536;2022-09-06T06:03:34;3.70;;;3.13;;
3815;SDS011;1923;48.154;11.536;2022-09-06T06:06:02;5.10;;;3.60;;
3815;SDS011;1923;48.154;11.536;2022-09-06T06:08:31;5.50;;;3.80;;
3815;SDS011;1923;48.154;11.536;2022-09-06T06:11:01;5.20;;;3.47;;
3815;SDS011;1923;48.154;11.536;2022-09-06T06:13:29;5.07;;;3.17;;
3815;SDS011;1923;48.154;11.536;2022-09-06T06:16:00;4.20;;;3.10;;
3815;SDS011;1923;48.154;11.536;2022-09-06T06:18:29;3.83;;;3.10;;
3815;SDS011;1923;48.154;11.536;2022-09-06T06:21:08;4.17;;;2.80;;
3815;SDS011;1923;48.154;11.536;2022-09-06T06:23:38;4.30;;;3.30;;
3815;SDS011;1923;48.154;11.536;2022-09-06T06:26:07;6.13;;;3.67;;
3815;SDS011;1923;48.154;11.536;2022-09-06T06:28:36;5.07;;;3.60;;
3815;SDS011;1923;48.154;11.536;2022-09-06T06:31:05;6.13;;;3.23;;
3815;SDS011;1923;48.154;11.536;2022-09-06T06:33:35;4.63;;;3.77;;
3815;SDS011;1923;48.154;11.536;2022-09-06T06:36:05;4.40;;;3.13;;
3815;SDS011;1923;48.154;11.536;2022-09-06T06:38:36;5.17;;;3.30;;
3815;SDS011;1923;48.154;11.536;2022-09-06T06:41:05;5.10;;;3.17;;
3815;SDS011;1923;48.154;11.536;2022-09-06T06:43:35;4.67;;;3.63;;
3815;SDS011;1923;48.154;11.536;2022-09-06T06:46:03;5.90;;;3.43;;
3815;SDS011;1923;48.154;11.536;2022-09-06T06:48:33;4.80;;;3.10;;
3815;SDS011;1923;48.154;11.536;2022-09-06T06:51:02;4.90;;;3.27;;
3815;SDS011;1923;48.154;11.536;2022-09-06T06:53:30;8.50;;;3.20;;
3815;SDS011;1923;48.154;11.536;2022-09-06T06:56:00;3.97;;;2.77;;
3815;SDS011;1923;48.154;11.536;2022-09-06T06:58:39;3.43;;;2.73;;
3815;SDS011;1923;48.154;11.536;2022-09-06T07:01:07;4.63;;;3.00;;
3815;SDS011;1923;48.154;11.536;2022-09-06T07:03:36;4.07;;;3.13;;
3815;SDS011;1923;48.154;11.536;2022-09-06T07:06:04;4.07;;;2.90;;
3815;SDS011;1923;48.154;11.536;2022-09-06T07:08:33;4.00;;;2.67;;
3815;SDS011;1923;48.154;11.536;2022-09-06T07:11:04;4.93;;;2.20;;
3815;SDS011;1923;48.154;11.536;2022-09-06T07:13:33;3.17;;;2.50;;
3815;SDS011;1923;48.154;11.536;2022-09-06T07:16:08;3.97;;;2.70;;
3815;SDS011;1923;48.154;11.536;2022-09-06T07:18:38;2.30;;;2.00;;
3815;SDS011;1923;48.154;11.536;2022-09-06T07:21:08;3.93;;;2.13;;
3815;SDS011;1923;48.154;11.536;2022-09-06T07:23:57;7.07;;;1.77;;
3815;SDS011;1923;48.154;11.536;2022-09-06T07:26:36;2.03;;;1.67;;
3815;SDS011;1923;48.154;11.536;2022-09-06T07:29:06;2.37;;;1.70;;
3815;SDS011;1923;48.154;11.536;2022-09-06T07:31:35;2.00;;;1.73;;
3815;SDS011;1923;48.154;11.536;2022-09-06T07:34:24;3.40;;;2.00;;
3815;SDS011;1923;48.154;11.536;2022-09-06T07:36:52;2.27;;;1.70;;
3815;SDS011;1923;48.154;11.536;2022-09-06T07:39:21;2.23;;;1.70;;
3815;SDS011;1923;48.154;11.536;2022-09-06T07:41:51;2.60;;;1.60;;
3815;SDS011;1923;48.154;11.536;2022-09-06T07:44:19;2.20;;;1.60;;
3815;SDS011;1923;48.154;11.536;2022-09-06T07:46:47;3.50;;;1.70;;
3815;SDS011;1923;48.154;11.536;2022-09-06T07:49:18;2.80;;;1.67;;
3815;SDS011;1923;48.154;11.536;2022-09-06T07:51:46;1.50;;;1.30;;
3815;SDS011;1923;48.154;11.536;2022-09-06T07:54:14;4.00;;;1.53;;
3815;SDS011;1923;48.154;11.536;2022-09-06T07:56:59;3.70;;;2.27;;
3815;SDS011;1923;48.154;11.536;2022-09-06T07:59:27;3.53;;;2.00;;
3815;SDS011;1923;48.154;11.536;2022-09-06T08:01:55;2.50;;;1.57;;
3815;SDS011;1923;48.154;11.536;2022-09-06T08:04:24;5.40;;;1.67;;
3815;SDS011;1923;48.154;11.536;2022-09-06T08:06:52;3.30;;;2.00;;
3815;SDS011;1923;48.154;11.536;2022-09-06T08:09:42;3.53;;;1.73;;
3815;SDS011;1923;48.154;11.536;2022-09-06T08:12:12;3.10;;;1.37;;
3815;SDS011;1923;48.154;11.536;2022-09-06T08:14:40;1.97;;;1.70;;
3815;SDS011;1923;48.154;11.536;2022-09-06T08:17:08;3.97;;;1.63;;
3815;SDS011;1923;48.154;11.536;2022-09-06T08:19:36;2.10;;;1.67;;
3815;SDS011;1923;48.154;11.536;2022-09-06T08:22:04;3.90;;;1.63;;
3815;SDS011;1923;48.154;11.536;2022-09-06T08:24:32;2.17;;;1.50;;
3815;SDS011;1923;48.154;11.536;2022-09-06T08:27:01;4.10;;;1.50;;
3815;SDS011;1923;48.154;11.536;2022-09-06T08:29:34;1.33;;;1.23;;
3815;SDS011;1923;48.154;11.536;2022-09-06T08:32:02;3.07;;;1.67;;
3815;SDS011;1923;48.154;11.536;2022-09-06T08:34:30;2.13;;;1.40;;
3815;SDS011;1923;48.154;11.536;2022-09-06T08:36:59;4.40;;;1.23;;
3815;SDS011;1923;48.154;11.536;2022-09-06T08:39:27;2.93;;;1.53;;
3815;SDS011;1923;48.154;11.536;2022-09-06T08:41:56;2.57;;;1.47;;
3815;SDS011;1923;48.154;11.536;2022-09-06T08:44:29;3.03;;;1.53;;
3815;SDS011;1923;48.154;11.536;2022-09-06T08:47:22;3.27;;;1.30;;
3815;SDS011;1923;48.154;11.536;2022-09-06T08:49:50;1.47;;;1.07;;
3815;SDS011;1923;48.154;11.536;2022-09-06T08:55:37;2.20;;;1.57;;
3815;SDS011;1923;48.154;11.536;2022-09-06T08:58:19;2.80;;;1.20;;
3815;SDS011;1923;48.154;11.536;2022-09-06T09:01:05;2.90;;;1.40;;
3815;SDS011;1923;48.154;11.536;2022-09-06T09:03:38;1.43;;;0.93;;
3815;SDS011;1923;48.154;11.536;2022-09-06T09:06:09;1.53;;;1.10;;
3815;SDS011;1923;48.154;11.536;2022-09-06T09:08:39;1.73;;;0.90;;
3815;SDS011;1923;48.154;11.536;2022-09-06T09:11:13;2.00;;;0.90;;
3815;SDS011;1923;48.154;11.536;2022-09-06T09:13:49;4.70;;;1.50;;
3815;SDS011;1923;48.154;11.536;2022-09-06T09:16:21;3.27;;;1.40;;
3815;SDS011;1923;48.154;11.536;2022-09-06T09:18:52;5.80;;;1.30;;
3815;SDS011;1923;48.154;11.536;2022-09-06T09:21:22;1.23;;;0.97;;
3815;SDS011;1923;48.154;11.536;2022-09-06T09:23:56;2.00;;;1.10;;
3815;SDS011;1923;48.154;11.536;2022-09-06T09:26:26;1.80;;;1.20;;
3815;SDS011;1923;48.154;11.536;2022-09-06T09:29:03;1.90;;;1.23;;
3815;SDS011;1923;48.154;11.536;2022-09-06T09:31:34;2.80;;;0.93;;
3815;SDS011;1923;48.154;11.536;2022-09-06T09:34:08;1.63;;;1.10;;
3815;SDS011;1923;48.154;11.536;2022-09-06T09:36:38;2.30;;;1.30;;
3815;SDS011;1923;48.154;11.536;2022-09-06T09:39:32;1.90;;;0.87;;
3815;SDS011;1923;48.154;11.536;2022-09-06T09:42:02;1.10;;;0.80;;
3815;SDS011;1923;48.154;11.536;2022-09-06T09:44:31;1.80;;;0.97;;
3815;SDS011;1923;48.154;11.536;2022-09-06T09:47:00;0.87;;;0.87;;
3815;SDS011;1923;48.154;11.536;2022-09-06T09:49:50;1.07;;;0.70;;
3815;SDS011;1923;48.154;11.536;2022-09-06T09:52:22;2.67;;;1.10;;
3815;SDS011;1923;48.154;11.536;2022-09-06T09:54:55;1.00;;;0.90;;
3815;SDS011;1923;48.154;11.536;2022-09-06T09:57:26;2.33;;;1.30;;
3815;SDS011;1923;48.154;11.536;2022-09-06T09:59:58;5.67;;;1.73;;
3815;SDS011;1923;48.154;11.536;2022-09-06T10:02:29;1.70;;;0.90;;
3815;SDS011;1923;48.154;11.536;2022-09-06T10:05:03;8.33;;;1.53;;
3815;SDS011;1923;48.154;11.536;2022-09-06T10:07:40;1.00;;;0.60;;
3815;SDS011;1923;48.154;11.536;2022-09-06T10:10:11;2.87;;;0.97;;
3815;SDS011;1923;48.154;11.536;2022-09-06T10:12:41;2.27;;;1.03;;
3815;SDS011;1923;48.154;11.536;2022-09-06T10:15:10;1.33;;;0.77;;
3815;SDS011;1923;48.154;11.536;2022-09-06T10:17:57;2.17;;;1.10;;
3815;SDS011;1923;48.154;11.536;2022-09-06T10:20:29;1.30;;;1.00;;
3815;SDS011;1923;48.154;11.536;2022-09-06T10:23:03;3.00;;;0.77;;
3815;SDS011;1923;48.154;11.536;2022-09-06T10:25:35;0.80;;;0.70;;
3815;SDS011;1923;48.154;11.536;2022-09-06T10:28:24;1.20;;;0.90;;
3815;SDS011;1923;48.154;11.536;2022-09-06T10:31:01;2.27;;;0.73;;
3815;SDS011;1923;48.154;11.536;2022-09-06T10:34:01;0.70;;;0.60;;
3815;SDS011;1923;48.154;11.536;2022-09-06T10:36:45;1.63;;;0.60;;
3815;SDS011;1923;48.154;11.536;2022-09-06T10:39:22;0.90;;;0.60;;
3815;SDS011;1923;48.154;11.536;2022-09-06T10:42:03;1.07;;;0.70;;
3815;SDS011;1923;48.154;11.536;2022-09-06T10:44:46;1.67;;;1.57;;
3815;SDS011;1923;48.154;11.536;2022-09-06T10:47:23;1.50;;;1.00;;
3815;SDS011;1923;48.154;11.536;2022-09-06T10:49:59;1.90;;;0.80;;
3815;SDS011;1923;48.154;11.536;2022-09-06T10:52:34;0.80;;;0.60;;
3815;SDS011;1923;48.154;11.536;2022-09-06T10:55:07;1.60;;;0.70;;
3815;SDS011;1923;48.154;11.536;2022-09-06T10:57:40;0.77;;;0.53;;
3815;SDS011;1923;48.154;11.536;2022-09-06T11:00:34;1.00;;;0.90;;
3815;SDS011;1923;48.154;11.536;2022-09-06T11:03:09;3.17;;;0.73;;
3815;SDS011;1923;48.154;11.536;2022-09-06T11:06:05;1.13;;;0.53;;
3815;SDS011;1923;48.154;11.536;2022-09-06T11:08:38;3.53;;;0.70;;
3815;SDS011;1923;48.154;11.536;2022-09-06T11:11:16;1.47;;;0.60;;
3815;SDS011;1923;48.154;11.536;2022-09-06T11:13:48;1.20;;;0.80;;
3815;SDS011;1923;48.154;11.536;2022-09-06T11:16:18;1.20;;;0.70;;
3815;SDS011;1923;48.154;11.536;2022-09-06T11:18:51;2.40;;;0.97;;
3815;SDS011;1923;48.154;11.536;2022-09-06T11:24:21;1.73;;;1.00;;
3815;SDS011;1923;48.154;11.536;2022-09-06T11:26:59;1.17;;;0.77;;
3815;SDS011;1923;48.154;11.536;2022-09-06T11:29:32;1.93;;;0.93;;
3815;SDS011;1923;48.154;11.536;2022-09-06T11:32:01;1.00;;;0.70;;
3815;SDS011;1923;48.154;11.536;2022-09-06T11:34:51;3.53;;;1.33;;
3815;SDS011;1923;48.154;11.536;2022-09-06T11:37:24;2.30;;;1.70;;
3815;SDS011;1923;48.154;11.536;2022-09-06T11:40:12;5.53;;;1.50;;
3815;SDS011;1923;48.154;11.536;2022-09-06T11:46:05;2.40;;;1.40;;
3815;SDS011;1923;48.154;11.536;2022-09-06T11:51:30;2.83;;;1.30;;
3815;SDS011;1923;48.154;11.536;2022-09-06T11:54:03;6.40;;;1.20;;
3815;SDS011;1923;48.154;11.536;2022-09-06T11:56:48;1.40;;;0.93;;
3815;SDS011;1923;48.154;11.536;2022-09-06T11:59:26;1.60;;;1.50;;
3815;SDS011;1923;48.154;11.536;2022-09-06T12:02:00;3.50;;;1.17;;
3815;SDS011;1923;48.154;11.536;2022-09-06T12:07:38;1.80;;;1.03;;
3815;SDS011;1923;48.154;11.536;2022-09-06T12:10:45;3.03;;;1.03;;
3815;SDS011;1923;48.154;11.536;2022-09-06T12:16:19;1.63;;;0.80;;
3815;SDS011;1923;48.154;11.536;2022-09-06T12:18:53;5.53;;;1.80;;
3815;SDS011;1923;48.154;11.536;2022-09-06T12:21:37;2.47;;;1.63;;
3815;SDS011;1923;48.154;11.536;2022-09-06T12:27:16;2.60;;;0.97;;
3815;SDS011;1923;48.154;11.536;2022-09-06T12:29:49;7.30;;;1.30;;
3815;SDS011;1923;48.154;11.536;2022-09-06T12:32:23;3.73;;;1.93;;
3815;SDS011;1923;48.154;11.536;2022-09-06T12:34:54;5.20;;;1.00;;
3815;SDS011;1923;48.154;11.536;2022-09-06T12:37:48;1.60;;;1.50;;
3815;SDS011;1923;48.154;11.536;2022-09-06T12:40:20;2.27;;;1.30;;
3815;SDS011;1923;48.154;11.536;2022-09-06T12:42:49;4.67;;;1.47;;
3815;SDS011;1923;48.154;11.536;2022-09-06T12:45:20;4.63;;;1.80;;
3815;SDS011;1923;48.154;11.536;2022-09-06T12:48:03;4.73;;;1.30;;
3815;SDS011;1923;48.154;11.536;2022-09-06T12:50:34;2.00;;;1.00;;
3815;SDS011;1923;48.154;11.536;2022-09-06T12:53:03;5.87;;;1.43;;
3815;SDS011;1923;48.154;11.536;2022-09-06T12:55:56;1.80;;;1.23;;
3815;SDS011;1923;48.154;11.536;2022-09-06T12:58:29;3.67;;;1.97;;
3815;SDS011;1923;48.154;11.536;2022-09-06T13:01:00;8.00;;;1.27;;
3815;SDS011;1923;48.154;11.536;2022-09-06T13:03:36;2.30;;;1.30;;
3815;SDS011;1923;48.154;11.536;2022-09-06T13:06:15;3.47;;;1.10;;
3815;SDS011;1923;48.154;11.536;2022-09-06T13:08:52;2.23;;;2.03;;
3815;SDS011;1923;48.154;11.536;2022-09-06T13:11:23;1.50;;;1.00;;
3815;SDS011;1923;48.154;11.536;2022-09-06T13:13:54;2.10;;;1.10;;
3815;SDS011;1923;48.154;11.536;2022-09-06T13:16:23;5.50;;;1.00;;
3815;SDS011;1923;48.154;11.536;2022-09-06T13:19:02;6.57;;;1.60;;
3815;SDS011;1923;48.154;11.536;2022-09-06T13:21:38;2.00;;;1.40;;
3815;SDS011;1923;48.154;11.536;2022-09-06T13:24:17;2.10;;;1.37;;
3815;SDS011;1923;48.154;11.536;2022-09-06T13:26:47;2.10;;;1.40;;
3815;SDS011;1923;48.154;11.536;2022-09-06T13:29:22;3.73;;;1.10;;
3815;SDS011;1923;48.154;11.536;2022-09-06T13:31:52;1.97;;;1.50;;
3815;SDS011;1923;48.154;11.536;2022-09-06T13:34:24;2.43;;;1.23;;
3815;SDS011;1923;48.154;11.536;2022-09-06T13:36:54;3.80;;;1.13;;
3815;SDS011;1923;48.154;11.536;2022-09-06T13:39:28;2.50;;;1.20;;
3815;SDS011;1923;48.154;11.536;2022-09-06T13:42:04;3.73;;;1.27;;
3815;SDS011;1923;48.154;11.536;2022-09-06T13:44:34;7.60;;;2.03;;
3815;SDS011;1923;48.154;11.536;2022-09-06T13:47:04;1.53;;;1.10;;
3815;SDS011;1923;48.154;11.536;2022-09-06T13:49:34;2.10;;;1.20;;
3815;SDS011;1923;48.154;11.536;2022-09-06T13:52:02;4.17;;;1.37;;
3815;SDS011;1923;48.154;11.536;2022-09-06T13:54:31;3.83;;;1.23;;
3815;SDS011;1923;48.154;11.536;2022-09-06T13:57:00;8.50;;;1.97;;
3815;SDS011;1923;48.154;11.536;2022-09-06T13:59:28;2.07;;;1.40;;
3815;SDS011;1923;48.154;11.536;2022-09-06T14:02:00;2.07;;;1.20;;
3815;SDS011;1923;48.154;11.536;2022-09-06T14:04:30;5.43;;;1.40;;
3815;SDS011;1923;48.154;11.536;2022-09-06T14:07:01;2.60;;;1.40;;
3815;SDS011;1923;48.154;11.536;2022-09-06T14:09:29;2.50;;;1.30;;
3815;SDS011;1923;48.154;11.536;2022-09-06T14:11:58;3.97;;;1.60;;
3815;SDS011;1923;48.154;11.536;2022-09-06T14:14:26;1.40;;;1.13;;
3815;SDS011;1923;48.154;11.536;2022-09-06T14:16:54;1.70;;;1.03;;
3815;SDS011;1923;48.154;11.536;2022-09-06T14:19:23;4.23;;;1.43;;
3815;SDS011;1923;48.154;11.536;2022-09-06T14:21:51;4.00;;;1.20;;
3815;SDS011;1923;48.154;11.536;2022-09-06T14:24:21;2.03;;;1.30;;
3815;SDS011;1923;48.154;11.536;2022-09-06T14:26:49;1.83;;;1.00;;
3815;SDS011;1923;48.154;11.536;2022-09-06T14:29:17;2.93;;;1.73;;
3815;SDS011;1923;48.154;11.536;2022-09-06T14:31:45;1.80;;;1.27;;
3815;SDS011;1923;48.154;11.536;2022-09-06T14:34:14;3.23;;;1.53;;
3815;SDS011;1923;48.154;11.536;2022-09-06T14:36:42;6.00;;;1.83;;
3815;SDS011;1923;48.154;11.536;2022-09-06T14:39:11;5.63;;;1.70;;
3815;SDS011;1923;48.154;11.536;2022-09-06T14:41:40;3.33;;;1.30;;
3815;SDS011;1923;48.154;11.536;2022-09-06T14:44:08;4.70;;;2.07;;
3815;SDS011;1923;48.154;11.536;2022-09-06T14:46:37;2.07;;;1.40;;
3815;SDS011;1923;48.154;11.536;2022-09-06T14:49:06;2.67;;;1.33;;
3815;SDS011;1923;48.154;11.536;2022-09-06T14:51:36;6.60;;;2.20;;
3815;SDS011;1923;48.154;11.536;2022-09-06T14:54:05;3.30;;;1.70;;
3815;SDS011;1923;48.154;11.536;2022-09-06T14:56:35;5.00;;;2.50;;
3815;SDS011;1923;48.154;11.536;2022-09-06T14:59:06;3.30;;;1.80;;
3815;SDS011;1923;48.154;11.536;2022-09-06T15:01:35;3.67;;;2.10;;
3815;SDS011;1923;48.154;11.536;2022-09-06T15:04:05;6.67;;;2.00;;
3815;SDS011;1923;48.154;11.536;2022-09-06T15:06:35;3.50;;;1.80;;
3815;SDS011;1923;48.154;11.536;2022-09-06T15:09:06;1.77;;;1.50;;
3815;SDS011;1923;48.154;11.536;2022-09-06T15:11:37;2.00;;;1.30;;
3815;SDS011;1923;48.154;11.536;2022-09-06T15:14:11;2.87;;;1.73;;
3815;SDS011;1923;48.154;11.536;2022-09-06T15:16:40;4.27;;;1.80;;
3815;SDS011;1923;48.154;11.536;2022-09-06T15:19:09;2.50;;;1.87;;
3815;SDS011;1923;48.154;11.536;2022-09-06T15:21:37;2.03;;;1.37;;
3815;SDS011;1923;48.154;11.536;2022-09-06T15:24:05;2.10;;;1.40;;
3815;SDS011;1923;48.154;11.536;2022-09-06T15:26:37;5.73;;;1.77;;
3815;SDS011;1923;48.154;11.536;2022-09-06T15:29:08;4.03;;;1.47;;
3815;SDS011;1923;48.154;11.536;2022-09-06T15:31:37;2.70;;;2.20;;
3815;SDS011;1923;48.154;11.536;2022-09-06T15:34:06;2.60;;;1.37;;
3815;SDS011;1923;48.154;11.536;2022-09-06T15:36:35;3.70;;;1.83;;
3815;SDS011;1923;48.154;11.536;2022-09-06T15:39:04;3.43;;;1.50;;
3815;SDS011;1923;48.154;11.536;2022-09-06T15:41:33;3.50;;;1.50;;
3815;SDS011;1923;48.154;11.536;2022-09-06T15:44:04;2.60;;;1.50;;
3815;SDS011;1923;48.154;11.536;2022-09-06T15:46:39;5.20;;;2.20;;
3815;SDS011;1923;48.154;11.536;2022-09-06T15:49:10;7.67;;;1.73;;
3815;SDS011;1923;48.154;11.536;2022-09-06T15:51:40;3.40;;;1.70;;
3815;SDS011;1923;48.154;11.536;2022-09-06T15:54:09;3.50;;;1.80;;
3815;SDS011;1923;48.154;11.536;2022-09-06T15:56:38;3.27;;;1.57;;
3815;SDS011;1923;48.154;11.536;2022-09-06T15:59:08;3.20;;;2.17;;